createdAt,value
2019-05-20T00:02:25.832Z,20.43
2019-05-20T00:04:47.030Z,16.50
2019-05-20T00:07:12.125Z,18.80
2019-05-20T00:09:37.751Z,20.40
2019-05-20T00:12:03.689Z,21.10
2019-05-20T00:14:28.818Z,20.27
2019-05-20T00:16:53.926Z,19.23
2019-05-20T00:19:19.069Z,21.07
2019-05-20T00:21:44.161Z,19.17
2019-05-20T00:24:09.257Z,20.13
2019-05-20T00:26:34.388Z,19.70
2019-05-20T00:28:59.762Z,19.83
2019-05-20T00:31:24.889Z,20.03
2019-05-20T00:33:50.223Z,21.03
2019-05-20T00:36:15.353Z,22.47
2019-05-20T00:38:40.466Z,21.03
2019-05-20T00:41:05.606Z,21.43
2019-05-20T00:43:30.724Z,22.80
2019-05-20T00:45:55.850Z,21.70
2019-05-20T00:48:20.941Z,17.73
2019-05-20T00:50:46.069Z,20.87
2019-05-20T00:53:11.213Z,20.47
2019-05-20T00:55:39.079Z,23.83
2019-05-20T00:58:04.215Z,20.60
2019-05-20T01:00:29.438Z,20.80
2019-05-20T01:02:57.278Z,21.40
2019-05-20T01:05:21.511Z,22.10
2019-05-20T01:07:46.653Z,22.67
2019-05-20T01:10:11.864Z,25.67
2019-05-20T01:12:36.965Z,20.23
2019-05-20T01:15:02.094Z,21.50
2019-05-20T01:17:27.261Z,21.97
2019-05-20T01:19:52.402Z,21.10
2019-05-20T01:22:17.497Z,23.33
2019-05-20T01:24:42.686Z,22.00
2019-05-20T01:27:07.793Z,23.03
2019-05-20T01:29:32.954Z,21.63
2019-05-20T01:31:58.054Z,23.80
2019-05-20T01:34:24.258Z,22.27
2019-05-20T01:36:49.590Z,23.43
2019-05-20T01:39:14.689Z,23.47
2019-05-20T01:41:42.312Z,20.83
2019-05-20T01:44:07.410Z,25.13
2019-05-20T01:46:32.526Z,25.13
2019-05-20T01:48:57.630Z,28.23
2019-05-20T01:51:22.810Z,24.40
2019-05-20T01:53:48.004Z,22.63
2019-05-20T01:56:13.139Z,24.27
2019-05-20T01:58:39.707Z,27.77
2019-05-20T02:01:04.942Z,25.87
2019-05-20T02:03:32.130Z,26.00
2019-05-20T02:05:56.798Z,26.20
2019-05-20T02:08:21.919Z,26.53
2019-05-20T02:10:47.021Z,27.67
2019-05-20T02:13:12.161Z,27.20
2019-05-20T02:15:48.991Z,27.57
2019-05-20T02:18:15.295Z,25.20
2019-05-20T02:20:40.392Z,31.63
2019-05-20T02:23:15.419Z,24.70
2019-05-20T02:25:40.539Z,25.13
2019-05-20T02:28:05.955Z,24.80
2019-05-20T02:30:31.060Z,25.60
2019-05-20T02:32:56.156Z,24.00
2019-05-20T02:35:21.410Z,22.73
2019-05-20T02:37:46.525Z,26.97
2019-05-20T02:40:11.761Z,24.83
2019-05-20T02:42:36.960Z,27.17
2019-05-20T02:45:02.078Z,27.23
2019-05-20T02:47:27.202Z,26.30
2019-05-20T02:49:52.336Z,28.03
2019-05-20T02:52:17.439Z,24.20
2019-05-20T02:54:43.296Z,26.10
2019-05-20T02:57:08.405Z,28.00
2019-05-20T02:59:33.555Z,25.77
2019-05-20T03:01:58.650Z,27.07
2019-05-20T03:04:23.771Z,28.17
2019-05-20T03:06:48.990Z,26.10
2019-05-20T03:09:14.094Z,25.43
2019-05-20T03:11:39.489Z,28.47
2019-05-20T03:14:04.708Z,26.37
2019-05-20T03:16:29.875Z,25.80
2019-05-20T03:18:55.007Z,28.70
2019-05-20T03:21:20.117Z,27.53
2019-05-20T03:23:45.264Z,27.93
2019-05-20T03:26:10.364Z,27.23
2019-05-20T03:28:35.608Z,27.23
2019-05-20T03:31:00.709Z,28.47
2019-05-20T03:33:26.779Z,25.63
2019-05-20T03:35:52.080Z,25.70
2019-05-20T03:38:17.174Z,30.73
2019-05-20T03:40:42.283Z,26.23
2019-05-20T03:43:07.403Z,28.13
2019-05-20T03:45:33.051Z,25.67
2019-05-20T03:47:58.168Z,25.90
2019-05-20T03:50:23.386Z,26.20
2019-05-20T03:52:48.494Z,27.07
2019-05-20T03:55:13.702Z,25.67
2019-05-20T03:57:38.843Z,26.20
2019-05-20T04:00:05.332Z,25.77
2019-05-20T04:02:30.455Z,23.93
2019-05-20T04:05:02.051Z,27.10
2019-05-20T04:07:22.290Z,26.07
2019-05-20T04:09:47.394Z,26.20
2019-05-20T04:12:12.511Z,27.17
2019-05-20T04:14:37.610Z,24.60
2019-05-20T04:17:02.726Z,26.77
2019-05-20T04:19:28.113Z,27.07
2019-05-20T04:21:53.920Z,25.73
2019-05-20T04:24:19.118Z,25.93
2019-05-20T04:26:44.223Z,26.40
2019-05-20T04:29:09.439Z,25.40
2019-05-20T04:31:34.556Z,25.97
2019-05-20T04:33:59.681Z,25.23
2019-05-20T04:36:24.937Z,26.57
2019-05-20T04:38:50.232Z,26.77
2019-05-20T04:41:15.603Z,24.83
2019-05-20T04:43:40.715Z,28.40
2019-05-20T04:46:06.542Z,27.30
2019-05-20T04:48:31.642Z,24.83
2019-05-20T04:50:56.762Z,25.90
2019-05-20T04:53:21.926Z,23.23
2019-05-20T04:55:47.057Z,28.03
2019-05-20T04:58:12.157Z,23.00
2019-05-20T05:00:54.831Z,23.03
2019-05-20T05:03:19.904Z,23.33
2019-05-20T05:05:45.012Z,21.77
2019-05-20T05:08:10.146Z,23.07
2019-05-20T05:10:35.251Z,24.53
2019-05-20T05:13:00.377Z,22.67
2019-05-20T05:15:25.743Z,24.63
2019-05-20T05:17:50.879Z,24.87
2019-05-20T05:20:18.455Z,29.93
2019-05-20T05:22:42.841Z,21.07
2019-05-20T05:25:08.298Z,23.07
2019-05-20T05:27:33.437Z,22.57
2019-05-20T05:29:58.573Z,22.63
2019-05-20T05:32:42.191Z,21.37
2019-05-20T05:35:08.511Z,23.13
2019-05-20T05:37:33.788Z,22.67
2019-05-20T05:39:58.936Z,21.97
2019-05-20T05:42:24.024Z,21.67
2019-05-20T05:44:49.143Z,22.80
2019-05-20T05:47:14.254Z,18.30
2019-05-20T05:49:39.395Z,17.93
2019-05-20T05:52:04.499Z,17.30
2019-05-20T05:54:29.633Z,18.17
2019-05-20T05:56:54.730Z,18.53
2019-05-20T05:59:19.826Z,16.77
2019-05-20T06:01:44.947Z,18.00
2019-05-20T06:04:10.048Z,17.63
2019-05-20T06:06:35.474Z,17.10
2019-05-20T06:09:00.568Z,19.10
2019-05-20T06:11:25.702Z,17.20
2019-05-20T06:13:51.086Z,15.57
2019-05-20T06:16:16.304Z,16.50
2019-05-20T06:18:41.474Z,15.90
2019-05-20T06:21:06.590Z,16.80
2019-05-20T06:23:31.716Z,16.47
2019-05-20T06:25:56.826Z,14.10
2019-05-20T06:28:23.594Z,15.43
2019-05-20T06:30:48.910Z,14.20
2019-05-20T06:33:14.038Z,15.05
2019-05-20T06:35:39.159Z,14.93
2019-05-20T06:38:06.645Z,13.68
2019-05-20T06:40:32.237Z,13.00
2019-05-20T06:42:57.336Z,15.53
2019-05-20T06:45:22.461Z,15.08
2019-05-20T06:47:47.570Z,12.25
2019-05-20T06:50:12.722Z,13.25
2019-05-20T06:52:40.927Z,13.30
2019-05-20T06:55:07.088Z,17.25
2019-05-20T06:57:33.447Z,12.70
2019-05-20T06:59:58.534Z,10.80
2019-05-20T07:02:25.130Z,10.60
2019-05-20T07:04:50.362Z,9.40
2019-05-20T07:07:20.854Z,12.45
2019-05-20T07:09:42.749Z,10.98
2019-05-20T07:12:12.156Z,11.33
2019-05-20T07:14:38.823Z,10.08
2019-05-20T07:17:05.414Z,9.08
2019-05-20T07:19:30.546Z,10.58
2019-05-20T07:21:56.250Z,10.75
2019-05-20T07:24:21.380Z,8.90
2019-05-20T07:26:46.544Z,9.13
2019-05-20T07:29:11.687Z,9.98
2019-05-20T07:31:36.831Z,8.90
2019-05-20T07:34:02.015Z,11.48
2019-05-20T07:36:27.138Z,9.03
2019-05-20T07:38:52.446Z,9.18
2019-05-20T07:41:17.858Z,11.85
2019-05-20T07:43:42.952Z,9.33
2019-05-20T07:46:09.785Z,11.43
2019-05-20T07:48:35.191Z,8.75
2019-05-20T07:51:00.847Z,9.58
2019-05-20T07:53:26.088Z,8.73
2019-05-20T07:55:58.439Z,10.05
2019-05-20T07:58:27.247Z,8.63
2019-05-20T08:00:52.431Z,10.03
2019-05-20T08:03:17.527Z,8.55
2019-05-20T08:05:42.653Z,9.05
2019-05-20T08:08:07.834Z,10.03
2019-05-20T08:10:33.973Z,8.30
2019-05-20T08:12:59.150Z,9.25
2019-05-20T08:15:24.379Z,7.62
2019-05-20T08:17:49.469Z,7.72
2019-05-20T08:20:14.964Z,7.50
2019-05-20T08:22:40.075Z,6.75
2019-05-20T08:25:05.663Z,10.28
2019-05-20T08:27:30.789Z,7.33
2019-05-20T08:29:55.886Z,7.92
2019-05-20T08:32:21.023Z,7.12
2019-05-20T08:34:46.111Z,7.30
2019-05-20T08:37:11.341Z,8.80
2019-05-20T08:39:36.575Z,7.78
2019-05-20T08:42:01.759Z,7.78
2019-05-20T08:44:26.878Z,7.00
2019-05-20T08:46:51.991Z,6.58
2019-05-20T08:49:17.123Z,6.90
2019-05-20T08:51:42.236Z,7.28
2019-05-20T08:54:07.372Z,7.40
2019-05-20T08:56:32.472Z,7.80
2019-05-20T08:58:57.593Z,7.20
2019-05-20T09:01:22.681Z,8.05
2019-05-20T09:03:47.841Z,6.87
2019-05-20T09:06:13.468Z,8.35
2019-05-20T09:08:39.517Z,6.92
2019-05-20T09:11:04.627Z,7.97
2019-05-20T09:13:29.732Z,6.87
2019-05-20T09:15:55.107Z,6.42
2019-05-20T09:18:20.186Z,7.40
2019-05-20T09:20:45.322Z,5.12
2019-05-20T09:23:10.427Z,6.20
2019-05-20T09:25:36.446Z,5.47
2019-05-20T09:28:02.126Z,5.55
2019-05-20T09:30:27.308Z,5.70
2019-05-20T09:32:52.827Z,5.35
2019-05-20T09:35:17.910Z,5.25
2019-05-20T09:37:43.038Z,7.22
2019-05-20T09:40:09.798Z,5.87
2019-05-20T09:42:35.879Z,6.25
2019-05-20T09:45:03.030Z,6.90
2019-05-20T09:47:29.351Z,6.90
2019-05-20T09:49:54.440Z,4.70
2019-05-20T09:52:19.590Z,5.75
2019-05-20T09:54:45.624Z,6.28
2019-05-20T09:57:10.902Z,5.97
2019-05-20T09:59:43.118Z,5.40
2019-05-20T10:02:02.770Z,7.05
2019-05-20T10:04:27.891Z,7.28
2019-05-20T10:06:53.259Z,7.20
2019-05-20T10:09:18.401Z,7.70
2019-05-20T10:11:43.515Z,6.20
2019-05-20T10:14:08.734Z,5.60
2019-05-20T10:16:33.825Z,6.12
2019-05-20T10:18:58.970Z,6.22
2019-05-20T10:21:24.094Z,4.53
2019-05-20T10:23:49.210Z,5.75
2019-05-20T10:26:14.314Z,5.67
2019-05-20T10:28:41.900Z,6.40
2019-05-20T10:31:06.169Z,5.10
2019-05-20T10:33:31.275Z,5.70
2019-05-20T10:35:56.404Z,6.33
2019-05-20T10:38:21.533Z,6.80
2019-05-20T10:40:46.686Z,6.10
2019-05-20T10:43:12.015Z,4.97
2019-05-20T10:45:37.396Z,5.05
2019-05-20T10:48:03.445Z,6.12
2019-05-20T10:50:30.070Z,4.95
2019-05-20T10:52:55.403Z,4.95
2019-05-20T10:55:21.281Z,7.10
2019-05-20T10:57:46.634Z,5.00
2019-05-20T11:00:12.370Z,4.60
2019-05-20T11:02:38.333Z,4.35
2019-05-20T11:05:03.487Z,4.22
2019-05-20T11:07:30.633Z,5.95
2019-05-20T11:09:57.570Z,6.37
2019-05-20T11:12:22.693Z,4.87
2019-05-20T11:14:47.929Z,7.62
2019-05-20T11:17:15.211Z,7.17
2019-05-20T11:19:39.798Z,6.62
2019-05-20T11:22:06.688Z,5.05
2019-05-20T11:24:31.866Z,6.87
2019-05-20T11:26:56.973Z,5.42
2019-05-20T11:29:23.062Z,4.95
2019-05-20T11:31:49.161Z,7.97
2019-05-20T11:34:14.342Z,7.03
2019-05-20T11:36:39.478Z,5.28
2019-05-20T11:39:07.727Z,5.55
2019-05-20T11:41:52.819Z,4.67
2019-05-20T11:43:59.632Z,6.33
2019-05-20T11:46:24.791Z,5.62
2019-05-20T11:48:49.901Z,6.22
2019-05-20T11:51:14.990Z,8.03
2019-05-20T11:53:40.418Z,6.17
2019-05-20T11:56:05.610Z,6.03
2019-05-20T11:58:31.749Z,6.90
2019-05-20T12:00:56.932Z,6.97
2019-05-20T12:03:22.057Z,5.03
2019-05-20T12:05:49.053Z,7.12
2019-05-20T12:08:14.402Z,5.12
2019-05-20T12:10:39.522Z,7.47
2019-05-20T12:13:04.650Z,5.30
2019-05-20T12:15:29.774Z,5.42
2019-05-20T12:17:55.123Z,4.95
2019-05-20T12:20:20.320Z,5.72
2019-05-20T12:22:45.448Z,6.65
2019-05-20T12:25:10.868Z,7.58
2019-05-20T12:27:36.038Z,7.42
2019-05-20T12:30:01.138Z,9.53
2019-05-20T12:32:27.218Z,6.17
2019-05-20T12:34:52.647Z,6.55
2019-05-20T12:37:18.046Z,6.87
2019-05-20T12:39:43.410Z,6.15
2019-05-20T12:42:08.829Z,6.25
2019-05-20T12:44:34.062Z,5.85
2019-05-20T12:46:59.482Z,7.25
2019-05-20T12:49:24.738Z,6.10
2019-05-20T12:51:50.452Z,7.45
2019-05-20T12:54:15.556Z,8.03
2019-05-20T12:56:40.763Z,6.08
2019-05-20T12:59:06.422Z,7.35
2019-05-20T13:01:31.568Z,8.53
2019-05-20T13:03:56.646Z,7.35
2019-05-20T13:06:22.039Z,8.73
2019-05-20T13:08:47.214Z,5.97
2019-05-20T13:11:12.321Z,9.08
2019-05-20T13:13:37.457Z,6.08
2019-05-20T13:16:02.930Z,7.37
2019-05-20T13:18:28.535Z,6.78
2019-05-20T13:20:54.176Z,6.78
2019-05-20T13:23:19.331Z,7.53
2019-05-20T13:25:44.494Z,8.55
2019-05-20T13:28:10.044Z,7.15
2019-05-20T13:30:35.161Z,9.78
2019-05-20T13:33:00.546Z,6.53
2019-05-20T13:35:26.040Z,8.60
2019-05-20T13:37:52.082Z,7.22
2019-05-20T13:40:17.208Z,7.40
2019-05-20T13:42:42.586Z,8.80
2019-05-20T13:45:08.249Z,7.20
2019-05-20T13:47:33.412Z,7.67
2019-05-20T13:49:59.918Z,9.55
2019-05-20T13:52:26.686Z,7.78
2019-05-20T13:54:51.772Z,7.22
2019-05-20T13:57:17.680Z,7.90
2019-05-20T13:59:42.763Z,7.00
2019-05-20T14:02:07.886Z,8.53
2019-05-20T14:04:33.010Z,7.45
2019-05-20T14:06:58.159Z,8.15
2019-05-20T14:09:23.250Z,8.38
2019-05-20T14:11:48.366Z,8.90
2019-05-20T14:14:14.342Z,9.78
2019-05-20T14:16:39.580Z,7.58
2019-05-20T14:19:04.694Z,9.03
2019-05-20T14:21:29.870Z,12.82
2019-05-20T14:23:55.063Z,8.80
2019-05-20T14:26:20.179Z,12.37
2019-05-20T14:28:45.326Z,8.15
2019-05-20T14:31:10.423Z,8.63
2019-05-20T14:33:35.618Z,8.15
2019-05-20T14:36:00.717Z,9.13
2019-05-20T14:38:26.942Z,7.35
2019-05-20T14:40:52.042Z,8.10
2019-05-20T14:43:17.198Z,10.05
2019-05-20T14:45:42.341Z,12.95
2019-05-20T14:48:07.500Z,10.13
2019-05-20T14:50:32.694Z,13.32
2019-05-20T14:52:57.861Z,13.65
2019-05-20T14:55:23.170Z,13.03
2019-05-20T14:57:48.350Z,14.30
2019-05-20T15:00:13.784Z,16.07
2019-05-20T15:02:38.884Z,16.00
2019-05-20T15:05:04.324Z,17.77
2019-05-20T15:07:31.195Z,15.70
2019-05-20T15:09:56.218Z,20.02
2019-05-20T15:12:22.313Z,19.90
2019-05-20T15:14:47.427Z,20.15
2019-05-20T15:17:12.835Z,21.60
2019-05-20T15:19:37.954Z,26.15
2019-05-20T15:22:03.127Z,17.35
2019-05-20T15:24:29.496Z,18.15
2019-05-20T15:26:54.660Z,20.32
2019-05-20T15:29:28.058Z,23.02
2019-05-20T15:31:46.806Z,15.83
2019-05-20T15:34:12.028Z,22.55
2019-05-20T15:36:37.155Z,25.05
2019-05-20T15:39:02.383Z,22.50
2019-05-20T15:41:29.197Z,19.00
2019-05-20T15:43:54.434Z,20.17
2019-05-20T15:46:19.572Z,26.30
2019-05-20T15:48:44.826Z,27.98
2019-05-20T15:51:09.951Z,20.80
2019-05-20T15:53:35.070Z,27.40
2019-05-20T15:56:00.218Z,24.00
2019-05-20T15:58:25.402Z,22.50
2019-05-20T16:00:50.546Z,22.27
2019-05-20T16:03:16.648Z,20.37
2019-05-20T16:05:41.782Z,23.42
2019-05-20T16:08:06.898Z,19.07
2019-05-20T16:10:32.027Z,19.75
2019-05-20T16:12:57.216Z,15.63
2019-05-20T16:15:22.338Z,15.03
2019-05-20T16:17:48.632Z,14.30
2019-05-20T16:20:15.696Z,15.20
2019-05-20T16:22:41.366Z,15.35
2019-05-20T16:25:08.906Z,15.20
2019-05-20T16:27:34.286Z,14.03
2019-05-20T16:30:05.942Z,15.20
2019-05-20T16:32:26.270Z,14.87
2019-05-20T16:34:51.382Z,17.60
2019-05-20T16:37:16.816Z,18.17
2019-05-20T16:39:42.175Z,18.17
2019-05-20T16:42:07.319Z,17.27
2019-05-20T16:44:32.535Z,18.45
2019-05-20T16:46:58.181Z,17.77
2019-05-20T16:49:23.299Z,16.93
2019-05-20T16:51:48.455Z,19.02
2019-05-20T16:54:13.824Z,17.82
2019-05-20T16:56:39.242Z,18.15
2019-05-20T16:59:04.606Z,19.12
2019-05-20T17:01:29.794Z,18.07
2019-05-20T17:03:55.279Z,18.90
2019-05-20T17:06:20.898Z,16.87
2019-05-20T17:08:47.247Z,16.93
2019-05-20T17:11:12.381Z,17.30
2019-05-20T17:13:37.539Z,18.17
2019-05-20T17:16:02.645Z,16.80
2019-05-20T17:18:28.760Z,16.77
2019-05-20T17:20:54.085Z,14.28
2019-05-20T17:23:19.237Z,14.38
2019-05-20T17:25:44.355Z,15.32
2019-05-20T17:28:10.247Z,14.00
2019-05-20T17:30:44.826Z,14.50
2019-05-20T17:33:02.164Z,13.30
2019-05-20T17:35:27.322Z,14.18
2019-05-20T17:37:55.164Z,13.62
2019-05-20T17:40:19.866Z,14.78
2019-05-20T17:42:45.033Z,12.50
2019-05-20T17:45:11.171Z,11.90
2019-05-20T17:47:36.273Z,14.75
2019-05-20T17:50:01.518Z,11.65
2019-05-20T17:52:26.753Z,13.07
2019-05-20T17:54:51.876Z,12.95
2019-05-20T17:57:17.031Z,12.07
2019-05-20T17:59:42.537Z,15.35
2019-05-20T18:02:09.574Z,13.60
2019-05-20T18:04:34.712Z,13.20
2019-05-20T18:06:59.809Z,13.90
2019-05-20T18:09:26.749Z,14.33
2019-05-20T18:11:52.075Z,13.37
2019-05-20T18:14:17.182Z,14.57
2019-05-20T18:16:42.396Z,14.07
2019-05-20T18:19:07.522Z,14.20
2019-05-20T18:21:32.663Z,16.67
2019-05-20T18:23:57.965Z,16.07
2019-05-20T18:26:23.105Z,15.35
2019-05-20T18:28:48.325Z,17.60
2019-05-20T18:31:30.920Z,17.62
2019-05-20T18:33:40.698Z,16.60
2019-05-20T18:36:05.976Z,16.73
2019-05-20T18:38:31.154Z,19.57
2019-05-20T18:40:56.245Z,19.97
2019-05-20T18:43:21.374Z,21.13
2019-05-20T18:45:46.586Z,19.50
2019-05-20T18:48:11.721Z,20.90
2019-05-20T18:50:36.815Z,19.90
2019-05-20T18:53:02.790Z,23.90
2019-05-20T18:55:28.147Z,22.07
2019-05-20T18:57:53.249Z,23.47
2019-05-20T19:00:18.981Z,26.20
2019-05-20T19:02:44.149Z,23.50
2019-05-20T19:05:10.163Z,28.80
2019-05-20T19:07:35.484Z,25.53
2019-05-20T19:10:00.609Z,30.30
2019-05-20T19:12:27.043Z,28.63
2019-05-20T19:14:52.362Z,29.10
2019-05-20T19:17:17.517Z,30.27
2019-05-20T19:19:44.154Z,28.47
2019-05-20T19:22:09.677Z,34.30
2019-05-20T19:24:35.050Z,29.87
2019-05-20T19:27:00.218Z,34.17
2019-05-20T19:29:26.109Z,34.80
2019-05-20T19:32:01.366Z,34.43
2019-05-20T19:34:18.010Z,34.27
2019-05-20T19:36:43.130Z,32.43
2019-05-20T19:39:08.446Z,32.03
2019-05-20T19:41:35.307Z,33.93
2019-05-20T19:44:00.490Z,35.90
2019-05-20T19:46:25.769Z,33.67
2019-05-20T19:48:50.910Z,32.50
2019-05-20T19:51:16.009Z,35.67
2019-05-20T19:53:41.137Z,35.87
2019-05-20T19:56:06.263Z,34.10
2019-05-20T19:58:31.413Z,36.30
2019-05-20T20:00:56.893Z,34.30
2019-05-20T20:03:22.074Z,31.40
2019-05-20T20:05:47.232Z,32.73
2019-05-20T20:08:12.455Z,33.57
2019-05-20T20:10:37.919Z,31.83
2019-05-20T20:13:03.055Z,32.87
2019-05-20T20:15:28.515Z,28.20
2019-05-20T20:17:53.763Z,28.43
2019-05-20T20:20:18.886Z,27.00
2019-05-20T20:22:44.133Z,26.53
2019-05-20T20:25:09.455Z,26.47
2019-05-20T20:27:34.569Z,26.33
2019-05-20T20:29:59.737Z,26.37
2019-05-20T20:32:37.590Z,25.20
2019-05-20T20:34:51.879Z,26.00
2019-05-20T20:37:17.040Z,27.73
2019-05-20T20:39:42.439Z,29.50
2019-05-20T20:42:07.526Z,23.40
2019-05-20T20:44:33.655Z,31.27
2019-05-20T20:46:59.975Z,30.63
2019-05-20T20:49:25.110Z,26.90
2019-05-20T20:51:50.249Z,29.23
2019-05-20T20:54:15.342Z,29.60
2019-05-20T20:56:40.466Z,26.20
2019-05-20T20:59:05.645Z,31.17
2019-05-20T21:01:30.735Z,33.50
2019-05-20T21:03:56.846Z,28.60
2019-05-20T21:06:23.282Z,32.43
2019-05-20T21:08:48.675Z,30.17
2019-05-20T21:11:13.830Z,29.93
2019-05-20T21:13:39.320Z,30.17
2019-05-20T21:16:04.414Z,26.87
2019-05-20T21:18:29.629Z,30.73
2019-05-20T21:20:54.866Z,30.07
2019-05-20T21:23:19.980Z,32.37
2019-05-20T21:25:45.073Z,24.97
2019-05-20T21:28:10.311Z,29.07
2019-05-20T21:30:35.738Z,32.03
2019-05-20T21:33:09.198Z,29.67
2019-05-20T21:35:30.731Z,30.57
2019-05-20T21:37:55.863Z,35.83
2019-05-20T21:40:21.056Z,27.53
2019-05-20T21:42:46.222Z,30.20
2019-05-20T21:45:11.326Z,25.17
2019-05-20T21:47:36.830Z,28.83
2019-05-20T21:50:01.963Z,22.63
2019-05-20T21:52:27.079Z,21.67
2019-05-20T21:54:52.201Z,23.00
2019-05-20T21:57:17.433Z,30.37
2019-05-20T21:59:43.733Z,31.30
2019-05-20T22:02:08.912Z,26.70
2019-05-20T22:04:34.137Z,23.83
2019-05-20T22:06:59.246Z,24.00
2019-05-20T22:09:24.354Z,23.90
2019-05-20T22:11:49.537Z,33.93
2019-05-20T22:14:14.697Z,24.80
2019-05-20T22:16:40.068Z,26.87
2019-05-20T22:19:05.263Z,27.83
2019-05-20T22:21:36.437Z,38.60
2019-05-20T22:24:05.012Z,30.97
2019-05-20T22:26:31.352Z,25.30
2019-05-20T22:28:56.456Z,27.50
2019-05-20T22:31:36.431Z,30.70
2019-05-20T22:33:48.808Z,32.40
2019-05-20T22:36:14.181Z,24.20
2019-05-20T22:38:39.326Z,26.03
2019-05-20T22:41:04.561Z,34.83
2019-05-20T22:43:29.710Z,27.17
2019-05-20T22:45:55.087Z,37.33
2019-05-20T22:48:20.379Z,28.30
2019-05-20T22:50:48.666Z,22.57
2019-05-20T22:53:12.406Z,29.27
2019-05-20T22:55:37.672Z,23.77
2019-05-20T22:58:02.779Z,28.50
2019-05-20T23:00:29.324Z,28.10
2019-05-20T23:02:56.241Z,36.37
2019-05-20T23:05:21.367Z,29.63
2019-05-20T23:07:46.517Z,28.13
2019-05-20T23:10:11.894Z,27.33
2019-05-20T23:12:37.760Z,24.37
2019-05-20T23:15:03.068Z,24.33
2019-05-20T23:17:28.259Z,21.47
2019-05-20T23:19:53.906Z,24.93
2019-05-20T23:22:19.040Z,19.50
2019-05-20T23:24:44.207Z,27.83
2019-05-20T23:27:09.313Z,41.47
2019-05-20T23:29:34.480Z,22.27
2019-05-20T23:32:00.104Z,20.13
2019-05-20T23:34:25.525Z,22.50
2019-05-20T23:36:50.633Z,26.60
2019-05-20T23:39:15.847Z,38.17
2019-05-20T23:41:40.971Z,30.17
2019-05-20T23:44:06.106Z,23.57
2019-05-20T23:46:31.482Z,26.23
2019-05-20T23:48:56.621Z,28.27
2019-05-20T23:51:21.758Z,25.40
2019-05-20T23:53:46.882Z,23.23
2019-05-20T23:56:13.580Z,31.57
2019-05-20T23:58:38.686Z,25.47
